COOK73 RJOC-UHPP
Flight info
| Callsign | COOK73 |
|---|---|
| Flight time | 3h 44m |
| Altitude | 35000 |
| Route | SAIGO SUGNO Y14 SAMON Z17 MRE V13 TIKYU Y13 SIRAO V13 CHE Y116 AWE V8 LUBEK Y116 MVE G583 BISIV/K0811F350 G583 UB T577 SAMIK SAMIK5N |
| Aircraft | C25C/M-SDE2E3FGHRWXY/LB1 |
Departure
| Time | 2026-04-17 15:13 |
|---|---|
| Airport | Izumo Enmusubi Airport (RJOC) |
Arrival
| Time | 2026-04-17 18:57 |
|---|---|
| Airport | Yelizovo Airport (UHPP) |
| Time | Latitude | Longitude | Altitude | Speed | Heading |
|---|---|---|---|---|---|
| 2026-04-17 14:51 | 35.41394 | 132.88723 | 13 ft | 0 kts | 331° |
| 2026-04-17 15:07 | 35.41388 | 132.88727 | 13 ft | 2 kts | 327° |
| 2026-04-17 15:07 | 35.41383 | 132.88739 | 13 ft | 2 kts | 252° |
| 2026-04-17 15:07 | 35.41389 | 132.88747 | 13 ft | 0 kts | 224° |
| 2026-04-17 15:08 | 35.41388 | 132.88747 | 13 ft | 1 kts | 224° |
| 2026-04-17 15:08 | 35.41358 | 132.88709 | 12 ft | 9 kts | 226° |
| 2026-04-17 15:09 | 35.41328 | 132.88676 | 12 ft | 9 kts | 216° |
| 2026-04-17 15:09 | 35.41264 | 132.88695 | 12 ft | 8 kts | 163° |
| 2026-04-17 15:09 | 35.41224 | 132.88683 | 11 ft | 11 kts | 217° |
| 2026-04-17 15:09 | 35.41173 | 132.88587 | 12 ft | 10 kts | 239° |
| 2026-04-17 15:10 | 35.41151 | 132.88542 | 13 ft | 9 kts | 239° |
| 2026-04-17 15:10 | 35.41118 | 132.88472 | 13 ft | 10 kts | 240° |
| 2026-04-17 15:10 | 35.41083 | 132.88399 | 12 ft | 10 kts | 239° |
| 2026-04-17 15:11 | 35.41007 | 132.88243 | 13 ft | 11 kts | 239° |
| 2026-04-17 15:11 | 35.40964 | 132.88164 | 12 ft | 11 kts | 218° |
| 2026-04-17 15:11 | 35.40903 | 132.88112 | 10 ft | 7 kts | 233° |
| 2026-04-17 15:11 | 35.40916 | 132.88074 | 10 ft | 5 kts | 7° |
| 2026-04-17 15:12 | 35.40933 | 132.88091 | 10 ft | 0 kts | 54° |
| 2026-04-17 15:12 | 35.41038 | 132.88305 | 12 ft | 68 kts | 59° |
| 2026-04-17 15:12 | 35.41418 | 132.89057 | 153 ft | 121 kts | 54° |
| 2026-04-17 15:13 | 35.41919 | 132.89882 | 669 ft | 141 kts | 56° |
| 2026-04-17 15:13 | 35.42634 | 132.90945 | 1001 ft | 179 kts | 47° |
| 2026-04-17 15:13 | 35.43562 | 132.92141 | 1483 ft | 207 kts | 47° |
| 2026-04-17 15:13 | 35.44580 | 132.93426 | 2383 ft | 212 kts | 48° |
| 2026-04-17 15:14 | 35.45618 | 132.94752 | 3272 ft | 219 kts | 48° |
| 2026-04-17 15:14 | 35.46685 | 132.96117 | 4138 ft | 224 kts | 49° |
| 2026-04-17 15:14 | 35.47774 | 132.97506 | 5006 ft | 228 kts | 48° |
| 2026-04-17 15:14 | 35.48878 | 132.98921 | 5872 ft | 231 kts | 47° |
| 2026-04-17 15:15 | 35.50001 | 133.00356 | 6731 ft | 235 kts | 47° |
| 2026-04-17 15:15 | 35.51278 | 133.01629 | 7498 ft | 240 kts | 32° |
| 2026-04-17 15:15 | 35.52687 | 133.02760 | 8252 ft | 244 kts | 34° |
| 2026-04-17 15:15 | 35.54109 | 133.03934 | 9036 ft | 248 kts | 34° |
| 2026-04-17 15:16 | 35.55557 | 133.05129 | 9786 ft | 253 kts | 35° |
| 2026-04-17 15:16 | 35.57012 | 133.06323 | 10484 ft | 256 kts | 34° |
| 2026-04-17 15:16 | 35.58506 | 133.07550 | 11186 ft | 259 kts | 33° |
| 2026-04-17 15:16 | 35.60011 | 133.08784 | 11867 ft | 262 kts | 32° |
| 2026-04-17 15:17 | 35.61527 | 133.10033 | 12553 ft | 264 kts | 31° |
| 2026-04-17 15:17 | 35.63061 | 133.11296 | 13236 ft | 266 kts | 30° |
| 2026-04-17 15:17 | 35.64608 | 133.12567 | 13919 ft | 269 kts | 29° |
| 2026-04-17 15:17 | 35.66169 | 133.13855 | 14503 ft | 272 kts | 28° |
| 2026-04-17 15:18 | 35.67748 | 133.15155 | 15086 ft | 275 kts | 28° |
| 2026-04-17 15:18 | 35.69347 | 133.16472 | 15673 ft | 278 kts | 28° |
| 2026-04-17 15:18 | 35.70966 | 133.17810 | 16254 ft | 282 kts | 28° |
| 2026-04-17 15:18 | 35.72583 | 133.19141 | 16906 ft | 285 kts | 27° |
| 2026-04-17 15:19 | 35.74244 | 133.20514 | 17572 ft | 289 kts | 27° |
| 2026-04-17 15:19 | 35.75916 | 133.21896 | 18280 ft | 292 kts | 27° |
| 2026-04-17 15:19 | 35.77615 | 133.23297 | 18820 ft | 296 kts | 27° |
| 2026-04-17 15:19 | 35.79336 | 133.24723 | 19297 ft | 300 kts | 27° |
| 2026-04-17 15:20 | 35.81080 | 133.26163 | 19788 ft | 305 kts | 26° |
| 2026-04-17 15:20 | 35.82847 | 133.27625 | 20405 ft | 308 kts | 26° |
| 2026-04-17 15:20 | 35.84641 | 133.29112 | 20989 ft | 313 kts | 26° |
| 2026-04-17 15:20 | 35.86461 | 133.30617 | 21501 ft | 318 kts | 26° |
| 2026-04-17 15:21 | 35.88306 | 133.32148 | 22012 ft | 322 kts | 26° |
| 2026-04-17 15:21 | 35.90175 | 133.33700 | 22518 ft | 326 kts | 26° |
| 2026-04-17 15:21 | 35.92068 | 133.35269 | 23021 ft | 331 kts | 25° |
| 2026-04-17 15:21 | 35.93990 | 133.36867 | 23536 ft | 335 kts | 25° |
| 2026-04-17 15:22 | 35.95935 | 133.38484 | 23986 ft | 339 kts | 25° |
| 2026-04-17 15:22 | 35.97731 | 133.40443 | 24442 ft | 355 kts | 48° |
| 2026-04-17 15:22 | 35.98875 | 133.43131 | 24883 ft | 364 kts | 73° |
| 2026-04-17 15:22 | 35.99162 | 133.46227 | 25330 ft | 364 kts | 96° |
| 2026-04-17 15:23 | 35.99005 | 133.49354 | 25757 ft | 366 kts | 99° |
| 2026-04-17 15:23 | 35.98766 | 133.52486 | 26184 ft | 369 kts | 100° |
| 2026-04-17 15:23 | 35.98547 | 133.55669 | 26609 ft | 373 kts | 98° |
| 2026-04-17 15:23 | 35.98366 | 133.58885 | 27026 ft | 377 kts | 98° |
| 2026-04-17 15:24 | 35.98177 | 133.62128 | 27442 ft | 380 kts | 98° |
| 2026-04-17 15:24 | 35.97972 | 133.65395 | 27857 ft | 383 kts | 98° |
| 2026-04-17 15:24 | 35.97759 | 133.68694 | 28254 ft | 386 kts | 98° |
| 2026-04-17 15:24 | 35.97553 | 133.72012 | 28715 ft | 388 kts | 98° |
| 2026-04-17 15:25 | 35.97348 | 133.75333 | 29198 ft | 388 kts | 98° |
| 2026-04-17 15:25 | 35.97137 | 133.78657 | 29679 ft | 389 kts | 98° |
| 2026-04-17 15:25 | 35.96926 | 133.81983 | 30152 ft | 389 kts | 98° |
| 2026-04-17 15:25 | 35.96712 | 133.85321 | 30542 ft | 390 kts | 98° |
| 2026-04-17 15:26 | 35.96555 | 133.88627 | 30909 ft | 393 kts | 91° |
| 2026-04-17 15:26 | 35.96791 | 133.92000 | 31277 ft | 396 kts | 81° |
| 2026-04-17 15:26 | 35.97443 | 133.95307 | 31647 ft | 396 kts | 69° |
| 2026-04-17 15:26 | 35.98493 | 133.98433 | 32017 ft | 392 kts | 57° |
| 2026-04-17 15:27 | 35.99872 | 134.01318 | 32385 ft | 390 kts | 51° |
| 2026-04-17 15:27 | 36.01305 | 134.04166 | 32762 ft | 391 kts | 51° |
| 2026-04-17 15:27 | 36.02732 | 134.07030 | 33131 ft | 392 kts | 51° |
| 2026-04-17 15:27 | 36.04167 | 134.09902 | 33491 ft | 393 kts | 51° |
| 2026-04-17 15:28 | 36.05607 | 134.12773 | 33853 ft | 393 kts | 50° |
| 2026-04-17 15:28 | 36.07049 | 134.15652 | 34194 ft | 395 kts | 51° |
| 2026-04-17 15:28 | 36.08491 | 134.18542 | 34497 ft | 395 kts | 50° |
| 2026-04-17 15:28 | 36.09936 | 134.21440 | 34796 ft | 396 kts | 50° |
| 2026-04-17 15:29 | 36.11387 | 134.24343 | 35005 ft | 400 kts | 50° |
| 2026-04-17 15:29 | 36.14368 | 134.30316 | 35099 ft | 420 kts | 51° |
| 2026-04-17 15:29 | 36.15920 | 134.33437 | 35107 ft | 431 kts | 51° |
| 2026-04-17 15:30 | 36.17507 | 134.36638 | 35107 ft | 441 kts | 51° |
| 2026-04-17 15:30 | 36.20791 | 134.43254 | 35112 ft | 459 kts | 52° |
| 2026-04-17 15:31 | 36.24289 | 134.49981 | 35108 ft | 466 kts | 44° |
| 2026-04-17 15:31 | 36.28709 | 134.55844 | 35106 ft | 468 kts | 36° |
| 2026-04-17 15:32 | 36.33302 | 134.61630 | 35107 ft | 477 kts | 36° |
| 2026-04-17 15:32 | 36.38007 | 134.67534 | 35110 ft | 484 kts | 36° |
| 2026-04-17 15:33 | 36.42769 | 134.73534 | 35110 ft | 490 kts | 37° |
| 2026-04-17 15:33 | 36.47571 | 134.79592 | 35105 ft | 494 kts | 37° |
| 2026-04-17 15:34 | 36.52413 | 134.85715 | 35110 ft | 498 kts | 37° |
| 2026-04-17 15:34 | 36.57249 | 134.91841 | 35106 ft | 501 kts | 37° |
| 2026-04-17 15:35 | 36.62143 | 134.98049 | 35109 ft | 503 kts | 37° |
| 2026-04-17 15:35 | 36.67058 | 135.04297 | 35103 ft | 505 kts | 37° |
| 2026-04-17 15:36 | 36.71978 | 135.10563 | 35106 ft | 506 kts | 37° |
| 2026-04-17 15:36 | 36.76906 | 135.16853 | 35108 ft | 507 kts | 37° |
| 2026-04-17 15:37 | 36.81841 | 135.23163 | 35108 ft | 508 kts | 37° |
| 2026-04-17 15:37 | 36.86753 | 135.29458 | 35109 ft | 509 kts | 38° |
| 2026-04-17 15:38 | 36.91692 | 135.35800 | 35114 ft | 509 kts | 38° |
| 2026-04-17 15:38 | 36.96635 | 135.42156 | 35108 ft | 510 kts | 38° |
| 2026-04-17 15:39 | 37.01587 | 135.48538 | 35109 ft | 510 kts | 38° |
| 2026-04-17 15:39 | 37.06501 | 135.54884 | 35113 ft | 511 kts | 38° |
| 2026-04-17 15:40 | 37.11443 | 135.61279 | 35110 ft | 511 kts | 38° |
| 2026-04-17 15:40 | 37.16388 | 135.67693 | 35110 ft | 511 kts | 38° |
| 2026-04-17 15:41 | 37.21328 | 135.74112 | 35109 ft | 511 kts | 38° |
| 2026-04-17 15:41 | 37.26268 | 135.80542 | 35111 ft | 512 kts | 38° |
| 2026-04-17 15:42 | 37.31210 | 135.86988 | 35112 ft | 512 kts | 38° |
| 2026-04-17 15:42 | 37.36146 | 135.93439 | 35110 ft | 512 kts | 38° |
| 2026-04-17 15:43 | 37.41081 | 135.99902 | 35114 ft | 512 kts | 38° |
| 2026-04-17 15:43 | 37.45984 | 136.06338 | 35104 ft | 513 kts | 39° |
| 2026-04-17 15:44 | 37.50918 | 136.12829 | 35112 ft | 513 kts | 39° |
| 2026-04-17 15:44 | 37.55840 | 136.19336 | 35112 ft | 513 kts | 39° |
| 2026-04-17 15:45 | 37.60762 | 136.25847 | 35111 ft | 513 kts | 39° |
| 2026-04-17 15:45 | 37.65680 | 136.32368 | 35113 ft | 513 kts | 39° |
| 2026-04-17 15:46 | 37.70593 | 136.38894 | 35111 ft | 513 kts | 39° |
| 2026-04-17 15:46 | 37.75512 | 136.45443 | 35116 ft | 513 kts | 39° |
| 2026-04-17 15:47 | 37.80390 | 136.51953 | 35119 ft | 513 kts | 39° |
| 2026-04-17 15:47 | 37.85302 | 136.58522 | 35113 ft | 513 kts | 39° |
| 2026-04-17 15:48 | 37.90202 | 136.65088 | 35116 ft | 513 kts | 39° |
| 2026-04-17 15:48 | 37.95100 | 136.71662 | 35119 ft | 513 kts | 39° |
| 2026-04-17 15:49 | 37.99995 | 136.78246 | 35117 ft | 512 kts | 39° |
| 2026-04-17 15:49 | 38.04876 | 136.84826 | 35113 ft | 512 kts | 40° |
| 2026-04-17 15:50 | 38.09753 | 136.91414 | 35111 ft | 512 kts | 40° |
| 2026-04-17 15:50 | 38.14627 | 136.98015 | 35111 ft | 511 kts | 40° |
| 2026-04-17 15:51 | 38.19487 | 137.04609 | 35110 ft | 511 kts | 40° |
| 2026-04-17 15:51 | 38.24348 | 137.11217 | 35112 ft | 511 kts | 40° |
| 2026-04-17 15:52 | 38.29165 | 137.17779 | 35112 ft | 511 kts | 40° |
| 2026-04-17 15:52 | 38.34015 | 137.24398 | 35106 ft | 511 kts | 40° |
| 2026-04-17 15:53 | 38.38852 | 137.31014 | 35107 ft | 510 kts | 40° |
| 2026-04-17 15:53 | 38.43687 | 137.37643 | 35108 ft | 510 kts | 40° |
| 2026-04-17 15:54 | 38.48516 | 137.44278 | 35105 ft | 510 kts | 41° |
| 2026-04-17 15:54 | 38.53334 | 137.50913 | 35104 ft | 510 kts | 41° |
| 2026-04-17 15:55 | 38.58153 | 137.57562 | 35104 ft | 509 kts | 41° |
| 2026-04-17 15:55 | 38.62963 | 137.64212 | 35100 ft | 509 kts | 41° |
| 2026-04-17 15:56 | 38.67774 | 137.70876 | 35098 ft | 509 kts | 41° |
| 2026-04-17 15:56 | 38.72579 | 137.77547 | 35092 ft | 509 kts | 41° |
| 2026-04-17 15:57 | 38.77342 | 137.84176 | 35101 ft | 509 kts | 41° |
| 2026-04-17 15:57 | 38.82128 | 137.90850 | 35093 ft | 508 kts | 41° |
| 2026-04-17 15:58 | 38.86912 | 137.97537 | 35093 ft | 508 kts | 41° |
| 2026-04-17 15:58 | 38.91689 | 138.04225 | 35100 ft | 508 kts | 42° |
| 2026-04-17 15:59 | 38.96464 | 138.10919 | 35096 ft | 508 kts | 42° |
| 2026-04-17 15:59 | 39.01228 | 138.17611 | 35090 ft | 507 kts | 42° |
| 2026-04-17 16:00 | 39.05188 | 138.23187 | 35097 ft | 507 kts | 42° |
| 2026-04-17 16:00 | 39.09945 | 138.29896 | 35085 ft | 507 kts | 42° |
| 2026-04-17 16:01 | 39.14693 | 138.36609 | 35087 ft | 507 kts | 42° |
| 2026-04-17 16:01 | 39.19439 | 138.43333 | 35085 ft | 506 kts | 42° |
| 2026-04-17 16:02 | 39.24166 | 138.50046 | 35085 ft | 505 kts | 42° |
| 2026-04-17 16:02 | 39.28884 | 138.56760 | 35081 ft | 504 kts | 42° |
| 2026-04-17 16:03 | 39.33587 | 138.63464 | 35086 ft | 503 kts | 43° |
| 2026-04-17 16:03 | 39.38283 | 138.70176 | 35081 ft | 503 kts | 43° |
| 2026-04-17 16:04 | 39.42964 | 138.76878 | 35078 ft | 502 kts | 43° |
| 2026-04-17 16:04 | 39.47635 | 138.83581 | 35078 ft | 501 kts | 43° |
| 2026-04-17 16:05 | 39.52293 | 138.90280 | 35076 ft | 500 kts | 43° |
| 2026-04-17 16:05 | 39.56938 | 138.96976 | 35076 ft | 499 kts | 43° |
| 2026-04-17 16:06 | 39.61551 | 139.03640 | 35075 ft | 499 kts | 43° |
| 2026-04-17 16:06 | 39.66179 | 139.10342 | 35070 ft | 498 kts | 43° |
| 2026-04-17 16:07 | 39.70794 | 139.17037 | 35072 ft | 497 kts | 43° |
| 2026-04-17 16:07 | 39.75399 | 139.23732 | 35069 ft | 496 kts | 43° |
| 2026-04-17 16:08 | 39.79993 | 139.30424 | 35069 ft | 496 kts | 43° |
| 2026-04-17 16:08 | 39.84588 | 139.37134 | 35072 ft | 496 kts | 43° |
| 2026-04-17 16:09 | 39.89171 | 139.43841 | 35072 ft | 496 kts | 43° |
| 2026-04-17 16:09 | 39.93751 | 139.50560 | 35069 ft | 496 kts | 43° |
| 2026-04-17 16:10 | 39.98296 | 139.57242 | 35074 ft | 495 kts | 43° |
| 2026-04-17 16:10 | 40.02863 | 139.63969 | 35074 ft | 495 kts | 43° |
| 2026-04-17 16:11 | 40.07422 | 139.70700 | 35074 ft | 495 kts | 43° |
| 2026-04-17 16:11 | 40.11976 | 139.77437 | 35074 ft | 494 kts | 43° |
| 2026-04-17 16:12 | 40.16523 | 139.84177 | 35078 ft | 493 kts | 43° |
| 2026-04-17 16:12 | 40.21054 | 139.90912 | 35075 ft | 493 kts | 43° |
| 2026-04-17 16:13 | 40.25571 | 139.97640 | 35077 ft | 492 kts | 43° |
| 2026-04-17 16:13 | 40.30082 | 140.04375 | 35075 ft | 491 kts | 43° |
| 2026-04-17 16:14 | 40.36806 | 140.14437 | 35066 ft | 490 kts | 43° |
| 2026-04-17 16:14 | 40.41292 | 140.21170 | 35072 ft | 489 kts | 43° |
| 2026-04-17 16:15 | 40.45759 | 140.27889 | 35068 ft | 488 kts | 43° |
| 2026-04-17 16:15 | 40.50216 | 140.34610 | 35066 ft | 487 kts | 43° |
| 2026-04-17 16:16 | 40.54662 | 140.41324 | 35051 ft | 487 kts | 43° |
| 2026-04-17 16:16 | 40.59100 | 140.48046 | 35045 ft | 486 kts | 43° |
| 2026-04-17 16:17 | 40.63518 | 140.54749 | 35036 ft | 484 kts | 43° |
| 2026-04-17 16:17 | 40.67924 | 140.61451 | 35030 ft | 483 kts | 43° |
| 2026-04-17 16:18 | 40.72553 | 140.67694 | 35026 ft | 474 kts | 32° |
| 2026-04-17 16:18 | 40.77980 | 140.72330 | 35024 ft | 458 kts | 18° |
| 2026-04-17 16:19 | 40.83815 | 140.75395 | 35031 ft | 449 kts | 11° |
| 2026-04-17 16:19 | 40.89659 | 140.78296 | 35034 ft | 448 kts | 11° |
| 2026-04-17 16:20 | 40.95499 | 140.81165 | 35036 ft | 447 kts | 11° |
| 2026-04-17 16:20 | 41.01328 | 140.84048 | 35040 ft | 446 kts | 11° |
| 2026-04-17 16:21 | 41.07142 | 140.86925 | 35038 ft | 446 kts | 11° |
| 2026-04-17 16:21 | 41.12947 | 140.89805 | 35040 ft | 445 kts | 11° |
| 2026-04-17 16:22 | 41.18740 | 140.92684 | 35041 ft | 444 kts | 11° |
| 2026-04-17 16:22 | 41.24524 | 140.95564 | 35035 ft | 444 kts | 11° |
| 2026-04-17 16:23 | 41.30268 | 140.98428 | 35037 ft | 444 kts | 11° |
| 2026-04-17 16:23 | 41.36058 | 141.01282 | 35042 ft | 442 kts | 11° |
| 2026-04-17 16:24 | 41.41830 | 141.04114 | 35035 ft | 441 kts | 11° |
| 2026-04-17 16:24 | 41.47579 | 141.06954 | 35033 ft | 440 kts | 11° |
| 2026-04-17 16:25 | 41.53317 | 141.09786 | 35037 ft | 439 kts | 11° |
| 2026-04-17 16:25 | 41.59039 | 141.12618 | 35034 ft | 438 kts | 11° |
| 2026-04-17 16:26 | 41.64754 | 141.15449 | 35034 ft | 437 kts | 11° |
| 2026-04-17 16:26 | 41.70447 | 141.18280 | 35033 ft | 436 kts | 11° |
| 2026-04-17 16:27 | 41.76117 | 141.21165 | 35030 ft | 435 kts | 11° |
| 2026-04-17 16:27 | 41.81781 | 141.24027 | 35031 ft | 434 kts | 11° |
| 2026-04-17 16:28 | 41.87429 | 141.26895 | 35032 ft | 434 kts | 11° |
| 2026-04-17 16:28 | 41.93030 | 141.29742 | 35031 ft | 433 kts | 11° |
| 2026-04-17 16:29 | 41.98660 | 141.32604 | 35031 ft | 432 kts | 11° |
| 2026-04-17 16:29 | 42.04292 | 141.35394 | 35030 ft | 431 kts | 11° |
| 2026-04-17 16:30 | 42.09899 | 141.38209 | 35033 ft | 430 kts | 11° |
| 2026-04-17 16:30 | 42.15497 | 141.41011 | 35035 ft | 429 kts | 11° |
| 2026-04-17 16:31 | 42.21091 | 141.43823 | 35032 ft | 428 kts | 11° |
| 2026-04-17 16:31 | 42.26664 | 141.46628 | 35030 ft | 427 kts | 11° |
| 2026-04-17 16:32 | 42.32224 | 141.49433 | 35033 ft | 426 kts | 11° |
| 2026-04-17 16:32 | 42.37773 | 141.52235 | 35023 ft | 425 kts | 11° |
| 2026-04-17 16:33 | 42.43273 | 141.55019 | 35030 ft | 424 kts | 11° |
| 2026-04-17 16:33 | 42.48791 | 141.57816 | 35031 ft | 423 kts | 11° |
| 2026-04-17 16:34 | 42.54303 | 141.60616 | 35029 ft | 422 kts | 11° |
| 2026-04-17 16:34 | 42.59799 | 141.63415 | 35029 ft | 421 kts | 11° |
| 2026-04-17 16:35 | 42.65286 | 141.66214 | 35030 ft | 421 kts | 11° |
| 2026-04-17 16:35 | 42.70719 | 141.69233 | 35029 ft | 428 kts | 18° |
| 2026-04-17 16:36 | 42.75925 | 141.73282 | 35031 ft | 431 kts | 21° |
| 2026-04-17 16:36 | 42.81120 | 141.77356 | 35029 ft | 431 kts | 20° |
| 2026-04-17 16:37 | 42.86305 | 141.81448 | 35028 ft | 430 kts | 20° |
| 2026-04-17 16:37 | 42.91444 | 141.85504 | 35023 ft | 430 kts | 20° |
| 2026-04-17 16:38 | 42.96618 | 141.89596 | 35016 ft | 429 kts | 20° |
| 2026-04-17 16:38 | 43.01786 | 141.93693 | 35013 ft | 429 kts | 21° |
| 2026-04-17 16:39 | 43.06941 | 141.97789 | 35006 ft | 428 kts | 21° |
| 2026-04-17 16:39 | 43.12084 | 142.01880 | 35004 ft | 426 kts | 20° |
| 2026-04-17 16:40 | 43.17214 | 142.05972 | 34996 ft | 426 kts | 21° |
| 2026-04-17 16:40 | 43.22333 | 142.10061 | 34995 ft | 425 kts | 20° |
| 2026-04-17 16:41 | 43.27446 | 142.14152 | 34993 ft | 425 kts | 21° |
| 2026-04-17 16:41 | 43.32549 | 142.18247 | 34990 ft | 424 kts | 21° |
| 2026-04-17 16:42 | 43.37643 | 142.22341 | 34983 ft | 423 kts | 21° |
| 2026-04-17 16:42 | 43.42719 | 142.26429 | 34981 ft | 423 kts | 21° |
| 2026-04-17 16:43 | 43.47760 | 142.30484 | 34975 ft | 421 kts | 20° |
| 2026-04-17 16:43 | 43.52832 | 142.34526 | 34974 ft | 420 kts | 20° |
| 2026-04-17 16:44 | 43.57878 | 142.38574 | 34975 ft | 419 kts | 20° |
| 2026-04-17 16:44 | 43.62913 | 142.42617 | 34972 ft | 418 kts | 20° |
| 2026-04-17 16:45 | 43.67726 | 142.47315 | 34978 ft | 432 kts | 32° |
| 2026-04-17 16:45 | 43.71972 | 142.53326 | 34974 ft | 438 kts | 37° |
| 2026-04-17 16:46 | 43.76158 | 142.59421 | 34973 ft | 437 kts | 37° |
| 2026-04-17 16:46 | 43.80332 | 142.65531 | 34977 ft | 436 kts | 37° |
| 2026-04-17 16:47 | 43.83791 | 142.70601 | 34973 ft | 435 kts | 37° |
| 2026-04-17 16:47 | 43.87946 | 142.76696 | 34973 ft | 434 kts | 37° |
| 2026-04-17 16:48 | 43.92759 | 142.83783 | 34970 ft | 434 kts | 37° |
| 2026-04-17 16:48 | 43.96223 | 142.88890 | 34966 ft | 433 kts | 37° |
| 2026-04-17 16:49 | 44.00330 | 142.94961 | 34975 ft | 430 kts | 37° |
| 2026-04-17 16:49 | 44.04414 | 143.00981 | 34966 ft | 430 kts | 37° |
| 2026-04-17 16:50 | 44.08536 | 143.07004 | 34971 ft | 429 kts | 37° |
| 2026-04-17 16:50 | 44.12628 | 143.13037 | 34977 ft | 429 kts | 37° |
| 2026-04-17 16:51 | 44.16725 | 143.19065 | 34973 ft | 428 kts | 37° |
| 2026-04-17 16:51 | 44.20808 | 143.25102 | 34972 ft | 427 kts | 37° |
| 2026-04-17 16:52 | 44.24883 | 143.31131 | 34969 ft | 427 kts | 37° |
| 2026-04-17 16:52 | 44.28923 | 143.37123 | 34970 ft | 426 kts | 37° |
| 2026-04-17 16:53 | 44.33146 | 143.42806 | 34967 ft | 419 kts | 32° |
| 2026-04-17 16:53 | 44.37444 | 143.48329 | 34969 ft | 419 kts | 32° |
| 2026-04-17 16:54 | 44.41749 | 143.53808 | 34963 ft | 418 kts | 32° |
| 2026-04-17 16:54 | 44.46034 | 143.59294 | 34973 ft | 417 kts | 32° |
| 2026-04-17 16:55 | 44.50310 | 143.64774 | 34960 ft | 416 kts | 32° |
| 2026-04-17 16:55 | 44.54575 | 143.70254 | 34964 ft | 415 kts | 32° |
| 2026-04-17 16:56 | 44.58826 | 143.75729 | 34963 ft | 415 kts | 32° |
| 2026-04-17 16:56 | 44.63069 | 143.81202 | 34963 ft | 414 kts | 32° |
| 2026-04-17 16:57 | 44.67300 | 143.86672 | 34962 ft | 413 kts | 32° |
| 2026-04-17 16:57 | 44.71524 | 143.92142 | 34964 ft | 412 kts | 32° |
| 2026-04-17 16:58 | 44.75736 | 143.97609 | 34960 ft | 411 kts | 33° |
| 2026-04-17 16:58 | 44.79935 | 144.03073 | 34966 ft | 411 kts | 33° |
| 2026-04-17 16:59 | 44.84124 | 144.08535 | 34965 ft | 410 kts | 33° |
| 2026-04-17 16:59 | 44.88277 | 144.13960 | 34963 ft | 409 kts | 33° |
| 2026-04-17 17:00 | 44.92448 | 144.19417 | 34967 ft | 408 kts | 33° |
| 2026-04-17 17:00 | 44.96601 | 144.24864 | 34968 ft | 407 kts | 33° |
| 2026-04-17 17:01 | 45.00791 | 144.30214 | 34970 ft | 403 kts | 30° |
| 2026-04-17 17:01 | 45.05047 | 144.35377 | 34969 ft | 403 kts | 31° |
| 2026-04-17 17:02 | 45.09285 | 144.40550 | 34970 ft | 402 kts | 31° |
| 2026-04-17 17:02 | 45.13514 | 144.45704 | 34974 ft | 401 kts | 31° |
| 2026-04-17 17:03 | 45.17728 | 144.50862 | 34981 ft | 400 kts | 31° |
| 2026-04-17 17:03 | 45.21912 | 144.55984 | 34977 ft | 399 kts | 31° |
| 2026-04-17 17:04 | 45.26109 | 144.61137 | 34978 ft | 399 kts | 31° |
| 2026-04-17 17:04 | 45.30305 | 144.66299 | 34980 ft | 399 kts | 31° |
| 2026-04-17 17:05 | 45.34494 | 144.71465 | 34985 ft | 399 kts | 31° |
| 2026-04-17 17:05 | 45.38680 | 144.76635 | 34987 ft | 398 kts | 31° |
| 2026-04-17 17:06 | 45.42864 | 144.81814 | 34982 ft | 398 kts | 31° |
| 2026-04-17 17:06 | 45.47040 | 144.86991 | 34989 ft | 398 kts | 31° |
| 2026-04-17 17:07 | 45.51214 | 144.92180 | 34990 ft | 398 kts | 31° |
| 2026-04-17 17:07 | 45.55382 | 144.97373 | 34991 ft | 398 kts | 31° |
| 2026-04-17 17:08 | 45.59547 | 145.02570 | 34994 ft | 397 kts | 31° |
| 2026-04-17 17:08 | 45.63680 | 145.07738 | 34992 ft | 397 kts | 31° |
| 2026-04-17 17:09 | 45.67836 | 145.12944 | 34993 ft | 397 kts | 30° |
| 2026-04-17 17:09 | 45.71987 | 145.18156 | 34992 ft | 397 kts | 30° |
| 2026-04-17 17:10 | 45.76137 | 145.23378 | 34975 ft | 399 kts | 32° |
| 2026-04-17 17:10 | 45.80386 | 145.28726 | 34983 ft | 414 kts | 33° |
| 2026-04-17 17:11 | 45.84767 | 145.34269 | 34983 ft | 426 kts | 33° |
| 2026-04-17 17:11 | 45.89258 | 145.39956 | 34996 ft | 434 kts | 34° |
| 2026-04-17 17:12 | 45.93825 | 145.45754 | 35002 ft | 441 kts | 34° |
| 2026-04-17 17:12 | 45.98451 | 145.51638 | 35005 ft | 446 kts | 34° |
| 2026-04-17 17:13 | 46.03115 | 145.57590 | 34999 ft | 450 kts | 34° |
| 2026-04-17 17:13 | 46.07802 | 145.63604 | 35003 ft | 452 kts | 34° |
| 2026-04-17 17:14 | 46.12509 | 145.69650 | 35004 ft | 454 kts | 34° |
| 2026-04-17 17:15 | 46.19557 | 145.78732 | 35005 ft | 455 kts | 34° |
| 2026-04-17 17:15 | 46.24286 | 145.84844 | 35001 ft | 456 kts | 35° |
| 2026-04-17 17:16 | 46.29008 | 145.90964 | 34998 ft | 456 kts | 35° |
| 2026-04-17 17:16 | 46.33725 | 145.97088 | 34998 ft | 456 kts | 35° |
| 2026-04-17 17:17 | 46.38441 | 146.03225 | 35002 ft | 455 kts | 35° |
| 2026-04-17 17:17 | 46.43147 | 146.09367 | 35002 ft | 455 kts | 35° |
| 2026-04-17 17:18 | 46.47845 | 146.15513 | 35004 ft | 455 kts | 35° |
| 2026-04-17 17:18 | 46.52502 | 146.21622 | 34998 ft | 454 kts | 35° |
| 2026-04-17 17:19 | 46.57184 | 146.27776 | 35000 ft | 453 kts | 35° |
| 2026-04-17 17:19 | 46.61854 | 146.33928 | 34998 ft | 453 kts | 35° |
| 2026-04-17 17:20 | 46.66517 | 146.40086 | 34998 ft | 452 kts | 35° |
| 2026-04-17 17:20 | 46.71166 | 146.46242 | 35004 ft | 451 kts | 36° |
| 2026-04-17 17:21 | 46.75810 | 146.52407 | 35002 ft | 451 kts | 36° |
| 2026-04-17 17:21 | 46.80438 | 146.58567 | 35003 ft | 450 kts | 36° |
| 2026-04-17 17:22 | 46.85059 | 146.64729 | 35001 ft | 449 kts | 36° |
| 2026-04-17 17:22 | 46.89670 | 146.70893 | 35003 ft | 449 kts | 36° |
| 2026-04-17 17:23 | 46.94252 | 146.77033 | 35004 ft | 449 kts | 36° |
| 2026-04-17 17:23 | 46.98848 | 146.83242 | 35002 ft | 449 kts | 36° |
| 2026-04-17 17:24 | 47.03435 | 146.89446 | 35002 ft | 449 kts | 36° |
| 2026-04-17 17:24 | 47.08018 | 146.95662 | 35003 ft | 449 kts | 36° |
| 2026-04-17 17:25 | 47.12595 | 147.01884 | 35006 ft | 448 kts | 36° |
| 2026-04-17 17:25 | 47.17169 | 147.08115 | 35006 ft | 448 kts | 36° |
| 2026-04-17 17:26 | 47.21737 | 147.14354 | 35004 ft | 448 kts | 36° |
| 2026-04-17 17:26 | 47.26301 | 147.20604 | 35005 ft | 448 kts | 36° |
| 2026-04-17 17:27 | 47.30856 | 147.26858 | 35006 ft | 447 kts | 36° |
| 2026-04-17 17:27 | 47.35405 | 147.33120 | 35010 ft | 447 kts | 36° |
| 2026-04-17 17:28 | 47.39951 | 147.39390 | 35009 ft | 447 kts | 36° |
| 2026-04-17 17:28 | 47.44462 | 147.45627 | 35011 ft | 447 kts | 36° |
| 2026-04-17 17:29 | 47.48996 | 147.51912 | 35011 ft | 447 kts | 36° |
| 2026-04-17 17:29 | 47.53527 | 147.58212 | 35012 ft | 447 kts | 37° |
| 2026-04-17 17:30 | 47.58051 | 147.64516 | 35010 ft | 447 kts | 37° |
| 2026-04-17 17:30 | 47.62578 | 147.70840 | 35011 ft | 447 kts | 37° |
| 2026-04-17 17:31 | 47.67097 | 147.77167 | 35008 ft | 447 kts | 37° |
| 2026-04-17 17:31 | 47.71623 | 147.83519 | 35012 ft | 447 kts | 37° |
| 2026-04-17 17:32 | 47.76136 | 147.89870 | 35011 ft | 447 kts | 37° |
| 2026-04-17 17:32 | 47.80646 | 147.96235 | 35006 ft | 447 kts | 37° |
| 2026-04-17 17:33 | 47.85125 | 148.02571 | 35010 ft | 447 kts | 37° |
| 2026-04-17 17:33 | 47.89635 | 148.08966 | 35010 ft | 447 kts | 37° |
| 2026-04-17 17:34 | 47.94141 | 148.15370 | 34999 ft | 448 kts | 36° |
| 2026-04-17 17:34 | 47.98645 | 148.21789 | 34996 ft | 448 kts | 37° |
| 2026-04-17 17:35 | 48.03150 | 148.28225 | 35008 ft | 448 kts | 37° |
| 2026-04-17 17:35 | 48.06889 | 148.33581 | 35009 ft | 448 kts | 36° |
| 2026-04-17 17:36 | 48.11387 | 148.40040 | 35007 ft | 448 kts | 37° |
| 2026-04-17 17:36 | 48.16616 | 148.47565 | 35007 ft | 448 kts | 36° |
| 2026-04-17 17:37 | 48.21111 | 148.54053 | 35009 ft | 448 kts | 36° |
| 2026-04-17 17:37 | 48.24874 | 148.59497 | 35014 ft | 448 kts | 36° |
| 2026-04-17 17:38 | 48.29357 | 148.66000 | 35012 ft | 448 kts | 37° |
| 2026-04-17 17:38 | 48.33806 | 148.72471 | 35011 ft | 448 kts | 37° |
| 2026-04-17 17:39 | 48.38286 | 148.79002 | 35014 ft | 448 kts | 36° |
| 2026-04-17 17:39 | 48.42762 | 148.85542 | 35015 ft | 448 kts | 36° |
| 2026-04-17 17:40 | 48.47231 | 148.92090 | 35016 ft | 448 kts | 36° |
| 2026-04-17 17:40 | 48.51695 | 148.98648 | 35018 ft | 448 kts | 37° |
| 2026-04-17 17:41 | 48.56153 | 149.05216 | 35015 ft | 448 kts | 37° |
| 2026-04-17 17:41 | 48.60605 | 149.11793 | 35022 ft | 448 kts | 37° |
| 2026-04-17 17:42 | 48.65050 | 149.18374 | 35021 ft | 447 kts | 37° |
| 2026-04-17 17:42 | 48.69492 | 149.24967 | 35017 ft | 447 kts | 37° |
| 2026-04-17 17:43 | 48.73929 | 149.31569 | 35020 ft | 447 kts | 37° |
| 2026-04-17 17:43 | 48.78330 | 149.38138 | 35028 ft | 447 kts | 37° |
| 2026-04-17 17:44 | 48.82756 | 149.44762 | 35028 ft | 447 kts | 37° |
| 2026-04-17 17:44 | 48.87182 | 149.51402 | 35030 ft | 447 kts | 37° |
| 2026-04-17 17:45 | 48.91600 | 149.58045 | 35029 ft | 447 kts | 37° |
| 2026-04-17 17:45 | 48.96010 | 149.64694 | 35036 ft | 447 kts | 37° |
| 2026-04-17 17:46 | 49.00420 | 149.71363 | 35036 ft | 447 kts | 37° |
| 2026-04-17 17:46 | 49.04806 | 149.78013 | 35041 ft | 446 kts | 37° |
| 2026-04-17 17:47 | 49.09207 | 149.84704 | 35041 ft | 446 kts | 37° |
| 2026-04-17 17:47 | 49.13604 | 149.91404 | 35043 ft | 446 kts | 37° |
| 2026-04-17 17:48 | 49.17994 | 149.98112 | 35042 ft | 446 kts | 38° |
| 2026-04-17 17:48 | 49.22378 | 150.04826 | 35049 ft | 446 kts | 38° |
| 2026-04-17 17:49 | 49.26760 | 150.11555 | 35050 ft | 446 kts | 38° |
| 2026-04-17 17:49 | 49.31138 | 150.18298 | 35051 ft | 446 kts | 38° |
| 2026-04-17 17:50 | 49.35510 | 150.25049 | 35051 ft | 446 kts | 38° |
| 2026-04-17 17:50 | 49.39881 | 150.31815 | 35055 ft | 446 kts | 38° |
| 2026-04-17 17:51 | 49.44220 | 150.38547 | 35059 ft | 446 kts | 38° |
| 2026-04-17 17:51 | 49.48584 | 150.45337 | 35061 ft | 446 kts | 38° |
| 2026-04-17 17:52 | 49.52940 | 150.52135 | 35062 ft | 446 kts | 38° |
| 2026-04-17 17:52 | 49.57297 | 150.58953 | 35065 ft | 446 kts | 38° |
| 2026-04-17 17:53 | 49.61647 | 150.65781 | 35063 ft | 446 kts | 38° |
| 2026-04-17 17:53 | 49.65994 | 150.72619 | 35068 ft | 446 kts | 38° |
| 2026-04-17 17:54 | 49.70335 | 150.79465 | 35064 ft | 446 kts | 38° |
| 2026-04-17 17:54 | 49.74675 | 150.86328 | 35069 ft | 446 kts | 38° |
| 2026-04-17 17:55 | 49.79011 | 150.93205 | 35070 ft | 446 kts | 38° |
| 2026-04-17 17:55 | 49.83340 | 151.00093 | 35071 ft | 447 kts | 38° |
| 2026-04-17 17:56 | 49.87672 | 151.07002 | 35073 ft | 447 kts | 39° |
| 2026-04-17 17:56 | 49.91998 | 151.13921 | 35076 ft | 447 kts | 39° |
| 2026-04-17 17:57 | 49.96294 | 151.20807 | 35079 ft | 447 kts | 39° |
| 2026-04-17 17:57 | 50.00618 | 151.27759 | 35076 ft | 447 kts | 39° |
| 2026-04-17 17:58 | 50.04941 | 151.34730 | 35073 ft | 447 kts | 39° |
| 2026-04-17 17:58 | 50.09257 | 151.41710 | 35079 ft | 447 kts | 39° |
| 2026-04-17 17:59 | 50.13570 | 151.48707 | 35078 ft | 448 kts | 39° |
| 2026-04-17 17:59 | 50.17861 | 151.55685 | 35081 ft | 448 kts | 39° |
| 2026-04-17 18:00 | 50.22173 | 151.62715 | 35082 ft | 448 kts | 39° |
| 2026-04-17 18:00 | 50.26487 | 151.69767 | 35077 ft | 449 kts | 39° |
| 2026-04-17 18:01 | 50.30797 | 151.76835 | 35077 ft | 449 kts | 39° |
| 2026-04-17 18:01 | 50.35103 | 151.83919 | 35079 ft | 449 kts | 39° |
| 2026-04-17 18:02 | 50.39411 | 151.91024 | 35079 ft | 450 kts | 39° |
| 2026-04-17 18:02 | 50.43717 | 151.98144 | 35074 ft | 450 kts | 39° |
| 2026-04-17 18:03 | 50.48020 | 152.05279 | 35076 ft | 450 kts | 39° |
| 2026-04-17 18:03 | 50.52320 | 152.12430 | 35078 ft | 451 kts | 39° |
| 2026-04-17 18:04 | 50.56622 | 152.19605 | 35075 ft | 451 kts | 40° |
| 2026-04-17 18:04 | 50.60918 | 152.26793 | 35075 ft | 450 kts | 40° |
| 2026-04-17 18:05 | 50.65203 | 152.33983 | 35075 ft | 450 kts | 40° |
| 2026-04-17 18:05 | 50.69456 | 152.41136 | 35070 ft | 450 kts | 40° |
| 2026-04-17 18:06 | 50.73734 | 152.48352 | 35069 ft | 449 kts | 40° |
| 2026-04-17 18:06 | 50.77997 | 152.55562 | 35073 ft | 449 kts | 40° |
| 2026-04-17 18:07 | 50.82260 | 152.62796 | 35071 ft | 449 kts | 40° |
| 2026-04-17 18:07 | 50.86508 | 152.70026 | 35071 ft | 448 kts | 41° |
| 2026-04-17 18:08 | 50.90746 | 152.77259 | 35071 ft | 448 kts | 41° |
| 2026-04-17 18:08 | 50.94980 | 152.84507 | 35067 ft | 447 kts | 41° |
| 2026-04-17 18:09 | 50.99202 | 152.91752 | 35068 ft | 447 kts | 41° |
| 2026-04-17 18:09 | 51.03394 | 152.98966 | 35069 ft | 447 kts | 41° |
| 2026-04-17 18:10 | 51.07604 | 153.06232 | 35063 ft | 447 kts | 41° |
| 2026-04-17 18:10 | 51.11809 | 153.13513 | 35065 ft | 447 kts | 41° |
| 2026-04-17 18:11 | 51.16009 | 153.20807 | 35067 ft | 447 kts | 41° |
| 2026-04-17 18:11 | 51.20173 | 153.28060 | 35066 ft | 447 kts | 42° |
| 2026-04-17 18:12 | 51.24364 | 153.35378 | 35064 ft | 447 kts | 42° |
| 2026-04-17 18:12 | 51.28551 | 153.42706 | 35061 ft | 447 kts | 42° |
| 2026-04-17 18:13 | 51.32732 | 153.50055 | 35063 ft | 447 kts | 42° |
| 2026-04-17 18:13 | 51.36881 | 153.57363 | 35066 ft | 447 kts | 42° |
| 2026-04-17 18:14 | 51.41055 | 153.64740 | 35061 ft | 447 kts | 42° |
| 2026-04-17 18:14 | 51.45224 | 153.72128 | 35059 ft | 447 kts | 42° |
| 2026-04-17 18:15 | 51.49393 | 153.79534 | 35060 ft | 447 kts | 42° |
| 2026-04-17 18:15 | 51.53557 | 153.86957 | 35058 ft | 447 kts | 43° |
| 2026-04-17 18:16 | 51.57691 | 153.94347 | 35057 ft | 448 kts | 43° |
| 2026-04-17 18:16 | 51.61848 | 154.01802 | 35061 ft | 448 kts | 43° |
| 2026-04-17 18:17 | 51.65999 | 154.09269 | 35058 ft | 448 kts | 43° |
| 2026-04-17 18:17 | 51.72223 | 154.20502 | 35057 ft | 448 kts | 43° |
| 2026-04-17 18:18 | 51.76337 | 154.27958 | 35056 ft | 448 kts | 43° |
| 2026-04-17 18:18 | 51.80477 | 154.35481 | 35056 ft | 448 kts | 43° |
| 2026-04-17 18:19 | 51.84612 | 154.43018 | 35058 ft | 448 kts | 43° |
| 2026-04-17 18:19 | 51.88740 | 154.50563 | 35056 ft | 448 kts | 43° |
| 2026-04-17 18:20 | 51.92838 | 154.58076 | 35052 ft | 448 kts | 43° |
| 2026-04-17 18:20 | 51.96261 | 154.64371 | 35055 ft | 448 kts | 43° |
| 2026-04-17 18:21 | 52.01070 | 154.73243 | 35050 ft | 448 kts | 44° |
| 2026-04-17 18:21 | 52.05178 | 154.80845 | 35050 ft | 448 kts | 44° |
| 2026-04-17 18:22 | 52.09252 | 154.88404 | 35047 ft | 448 kts | 44° |
| 2026-04-17 18:22 | 52.13349 | 154.96030 | 35045 ft | 447 kts | 44° |
| 2026-04-17 18:23 | 52.17439 | 155.03664 | 35044 ft | 447 kts | 44° |
| 2026-04-17 18:23 | 52.21524 | 155.11316 | 35044 ft | 447 kts | 44° |
| 2026-04-17 18:24 | 52.25575 | 155.18929 | 35043 ft | 447 kts | 44° |
| 2026-04-17 18:24 | 52.29646 | 155.26601 | 35040 ft | 447 kts | 44° |
| 2026-04-17 18:25 | 52.33713 | 155.34289 | 35037 ft | 447 kts | 44° |
| 2026-04-17 18:25 | 52.37775 | 155.41988 | 35034 ft | 447 kts | 44° |
| 2026-04-17 18:26 | 52.41805 | 155.49650 | 35041 ft | 447 kts | 44° |
| 2026-04-17 18:26 | 52.45852 | 155.57371 | 35032 ft | 447 kts | 45° |
| 2026-04-17 18:27 | 52.49896 | 155.65111 | 35030 ft | 447 kts | 45° |
| 2026-04-17 18:27 | 52.53934 | 155.72864 | 35026 ft | 447 kts | 45° |
| 2026-04-17 18:28 | 52.57941 | 155.80577 | 35023 ft | 447 kts | 45° |
| 2026-04-17 18:28 | 52.61967 | 155.88351 | 35023 ft | 446 kts | 45° |
| 2026-04-17 18:29 | 52.65988 | 155.96145 | 35019 ft | 446 kts | 45° |
| 2026-04-17 18:29 | 52.70000 | 156.03957 | 35016 ft | 446 kts | 45° |
| 2026-04-17 18:30 | 52.73981 | 156.11727 | 35016 ft | 446 kts | 45° |
| 2026-04-17 18:30 | 52.77979 | 156.19560 | 35008 ft | 446 kts | 45° |
| 2026-04-17 18:31 | 52.81442 | 156.28143 | 35001 ft | 454 kts | 59° |
| 2026-04-17 18:31 | 52.83572 | 156.38032 | 34995 ft | 459 kts | 71° |
| 2026-04-17 18:32 | 52.85339 | 156.48170 | 34995 ft | 458 kts | 68° |
| 2026-04-17 18:32 | 52.88278 | 156.57259 | 34982 ft | 448 kts | 48° |
| 2026-04-17 18:33 | 52.92792 | 156.64104 | 34975 ft | 436 kts | 28° |
| 2026-04-17 18:33 | 52.98273 | 156.67977 | 34973 ft | 426 kts | 13° |
| 2026-04-17 18:34 | 53.03676 | 156.72251 | 34976 ft | 436 kts | 28° |
| 2026-04-17 18:34 | 53.08361 | 156.78641 | 34968 ft | 444 kts | 42° |
| 2026-04-17 18:35 | 53.10337 | 156.82546 | 34521 ft | 439 kts | 49° |
| 2026-04-17 18:35 | 53.11991 | 156.86785 | 33940 ft | 436 kts | 56° |
| 2026-04-17 18:35 | 53.13316 | 156.91312 | 33328 ft | 433 kts | 63° |
| 2026-04-17 18:35 | 53.14295 | 156.96035 | 32758 ft | 430 kts | 71° |
| 2026-04-17 18:36 | 53.14922 | 157.00879 | 32197 ft | 427 kts | 78° |
| 2026-04-17 18:36 | 53.15200 | 157.05780 | 31636 ft | 424 kts | 85° |
| 2026-04-17 18:36 | 53.15133 | 157.10611 | 31087 ft | 422 kts | 92° |
| 2026-04-17 18:36 | 53.14724 | 157.15432 | 30535 ft | 420 kts | 99° |
| 2026-04-17 18:37 | 53.13979 | 157.20128 | 29974 ft | 418 kts | 107° |
| 2026-04-17 18:37 | 53.12929 | 157.24616 | 29376 ft | 414 kts | 112° |
| 2026-04-17 18:37 | 53.11836 | 157.29018 | 28838 ft | 409 kts | 111° |
| 2026-04-17 18:37 | 53.10760 | 157.33377 | 28296 ft | 405 kts | 111° |
| 2026-04-17 18:38 | 53.09686 | 157.37693 | 27763 ft | 402 kts | 112° |
| 2026-04-17 18:38 | 53.08611 | 157.41969 | 27248 ft | 399 kts | 112° |
| 2026-04-17 18:38 | 53.07561 | 157.46159 | 26730 ft | 397 kts | 112° |
| 2026-04-17 18:38 | 53.06501 | 157.50392 | 26202 ft | 396 kts | 112° |
| 2026-04-17 18:39 | 53.05444 | 157.54607 | 25682 ft | 394 kts | 112° |
| 2026-04-17 18:39 | 53.04442 | 157.58838 | 25152 ft | 392 kts | 105° |
| 2026-04-17 18:39 | 53.04198 | 157.63256 | 24952 ft | 377 kts | 84° |
| 2026-04-17 18:39 | 53.04516 | 157.67493 | 24796 ft | 366 kts | 78° |
| 2026-04-17 18:40 | 53.04947 | 157.71674 | 24259 ft | 369 kts | 76° |
| 2026-04-17 18:40 | 53.05412 | 157.75887 | 23685 ft | 373 kts | 77° |
| 2026-04-17 18:40 | 53.05829 | 157.80106 | 23070 ft | 376 kts | 78° |
| 2026-04-17 18:40 | 53.06229 | 157.84404 | 22476 ft | 376 kts | 78° |
| 2026-04-17 18:41 | 53.06651 | 157.88698 | 21875 ft | 377 kts | 77° |
| 2026-04-17 18:41 | 53.07077 | 157.92999 | 21269 ft | 377 kts | 77° |
| 2026-04-17 18:41 | 53.07500 | 157.97304 | 20674 ft | 377 kts | 78° |
| 2026-04-17 18:41 | 53.07912 | 158.01609 | 20075 ft | 377 kts | 78° |
| 2026-04-17 18:42 | 53.08327 | 158.05914 | 19480 ft | 378 kts | 78° |
| 2026-04-17 18:42 | 53.08744 | 158.10229 | 18882 ft | 377 kts | 78° |
| 2026-04-17 18:42 | 53.09153 | 158.14476 | 18293 ft | 377 kts | 78° |
| 2026-04-17 18:42 | 53.09560 | 158.18772 | 17658 ft | 375 kts | 79° |
| 2026-04-17 18:43 | 53.09965 | 158.23028 | 17070 ft | 370 kts | 79° |
| 2026-04-17 18:43 | 53.10361 | 158.27243 | 16489 ft | 367 kts | 79° |
| 2026-04-17 18:43 | 53.10759 | 158.31419 | 15912 ft | 364 kts | 79° |
| 2026-04-17 18:43 | 53.11147 | 158.35561 | 15346 ft | 361 kts | 79° |
| 2026-04-17 18:44 | 53.11533 | 158.39677 | 14783 ft | 359 kts | 79° |
| 2026-04-17 18:44 | 53.11912 | 158.43766 | 14225 ft | 356 kts | 80° |
| 2026-04-17 18:44 | 53.12291 | 158.47835 | 13660 ft | 355 kts | 79° |
| 2026-04-17 18:44 | 53.12658 | 158.51816 | 13091 ft | 346 kts | 80° |
| 2026-04-17 18:45 | 53.13016 | 158.55669 | 12571 ft | 329 kts | 80° |
| 2026-04-17 18:45 | 53.13350 | 158.59348 | 12076 ft | 315 kts | 80° |
| 2026-04-17 18:45 | 53.13678 | 158.62903 | 11602 ft | 305 kts | 81° |
| 2026-04-17 18:45 | 53.13641 | 158.66367 | 11137 ft | 299 kts | 105° |
| 2026-04-17 18:46 | 53.12772 | 158.69442 | 10693 ft | 291 kts | 127° |
| 2026-04-17 18:46 | 53.11266 | 158.71601 | 10253 ft | 284 kts | 151° |
| 2026-04-17 18:46 | 53.09521 | 158.72896 | 9855 ft | 273 kts | 159° |
| 2026-04-17 18:46 | 53.07792 | 158.74068 | 9427 ft | 264 kts | 160° |
| 2026-04-17 18:47 | 53.06112 | 158.75179 | 9048 ft | 256 kts | 159° |
| 2026-04-17 18:47 | 53.04495 | 158.76283 | 8761 ft | 247 kts | 159° |
| 2026-04-17 18:47 | 53.02921 | 158.77366 | 8424 ft | 243 kts | 159° |
| 2026-04-17 18:47 | 53.01363 | 158.78423 | 8072 ft | 241 kts | 159° |
| 2026-04-17 18:48 | 52.99818 | 158.79478 | 7719 ft | 239 kts | 159° |
| 2026-04-17 18:48 | 52.98224 | 158.80074 | 7361 ft | 235 kts | 186° |
| 2026-04-17 18:48 | 52.96704 | 158.79277 | 6823 ft | 237 kts | 215° |
| 2026-04-17 18:48 | 52.95615 | 158.77256 | 6245 ft | 237 kts | 244° |
| 2026-04-17 18:49 | 52.94973 | 158.74794 | 5646 ft | 228 kts | 250° |
| 2026-04-17 18:49 | 52.94400 | 158.72386 | 5092 ft | 221 kts | 251° |
| 2026-04-17 18:49 | 52.93842 | 158.70077 | 4740 ft | 211 kts | 251° |
| 2026-04-17 18:49 | 52.93281 | 158.67835 | 4473 ft | 209 kts | 250° |
| 2026-04-17 18:50 | 52.92771 | 158.65617 | 4246 ft | 203 kts | 259° |
| 2026-04-17 18:50 | 52.92872 | 158.63324 | 4053 ft | 202 kts | 288° |
| 2026-04-17 18:50 | 52.93618 | 158.61407 | 3847 ft | 206 kts | 317° |
| 2026-04-17 18:50 | 52.94870 | 158.60230 | 3647 ft | 210 kts | 335° |
| 2026-04-17 18:51 | 52.96227 | 158.59316 | 3441 ft | 207 kts | 335° |
| 2026-04-17 18:51 | 52.97551 | 158.58442 | 3240 ft | 202 kts | 335° |
| 2026-04-17 18:51 | 52.98830 | 158.57565 | 3044 ft | 198 kts | 335° |
| 2026-04-17 18:51 | 53.00102 | 158.56689 | 2850 ft | 197 kts | 335° |
| 2026-04-17 18:52 | 53.01300 | 158.55873 | 2683 ft | 174 kts | 335° |
| 2026-04-17 18:52 | 53.02361 | 158.55148 | 2512 ft | 152 kts | 335° |
| 2026-04-17 18:52 | 53.03230 | 158.54544 | 2370 ft | 121 kts | 333° |
| 2026-04-17 18:52 | 53.03975 | 158.54037 | 2249 ft | 115 kts | 334° |
| 2026-04-17 18:53 | 53.04700 | 158.53533 | 2134 ft | 112 kts | 334° |
| 2026-04-17 18:53 | 53.05403 | 158.53041 | 2083 ft | 107 kts | 333° |
| 2026-04-17 18:53 | 53.06084 | 158.52578 | 2044 ft | 106 kts | 333° |
| 2026-04-17 18:53 | 53.06777 | 158.52097 | 1914 ft | 110 kts | 334° |
| 2026-04-17 18:54 | 53.07490 | 158.51601 | 1763 ft | 112 kts | 335° |
| 2026-04-17 18:54 | 53.08209 | 158.51104 | 1603 ft | 112 kts | 335° |
| 2026-04-17 18:54 | 53.08917 | 158.50619 | 1451 ft | 111 kts | 336° |
| 2026-04-17 18:54 | 53.09635 | 158.50121 | 1301 ft | 112 kts | 337° |
| 2026-04-17 18:55 | 53.10347 | 158.49627 | 1155 ft | 109 kts | 338° |
| 2026-04-17 18:55 | 53.11043 | 158.49149 | 1019 ft | 107 kts | 338° |
| 2026-04-17 18:55 | 53.11729 | 158.48675 | 892 ft | 107 kts | 338° |
| 2026-04-17 18:55 | 53.12414 | 158.48195 | 764 ft | 106 kts | 338° |
| 2026-04-17 18:56 | 53.13094 | 158.47730 | 638 ft | 105 kts | 337° |
| 2026-04-17 18:56 | 53.13771 | 158.47259 | 511 ft | 105 kts | 337° |
| 2026-04-17 18:56 | 53.14439 | 158.46802 | 386 ft | 106 kts | 337° |
| 2026-04-17 18:56 | 53.15118 | 158.46330 | 259 ft | 105 kts | 338° |
| 2026-04-17 18:57 | 53.15770 | 158.45840 | 132 ft | 98 kts | 338° |
| 2026-04-17 18:57 | 53.16235 | 158.45539 | 120 ft | 35 kts | 338° |
| 2026-04-17 18:57 | 53.16447 | 158.45391 | 121 ft | 31 kts | 337° |
| 2026-04-17 18:57 | 53.16632 | 158.45262 | 122 ft | 27 kts | 341° |
| 2026-04-17 18:58 | 53.16795 | 158.45156 | 122 ft | 24 kts | 338° |
| 2026-04-17 18:58 | 53.16946 | 158.45050 | 120 ft | 23 kts | 337° |
| 2026-04-17 18:58 | 53.17095 | 158.44946 | 121 ft | 24 kts | 337° |
| 2026-04-17 18:58 | 53.17210 | 158.44868 | 123 ft | 16 kts | 338° |
| 2026-04-17 18:59 | 53.17316 | 158.44793 | 123 ft | 17 kts | 337° |
| 2026-04-17 18:59 | 53.17426 | 158.44716 | 125 ft | 17 kts | 338° |
| 2026-04-17 18:59 | 53.17512 | 158.44658 | 124 ft | 13 kts | 338° |
| 2026-04-17 18:59 | 53.17585 | 158.44573 | 124 ft | 14 kts | 277° |
| 2026-04-17 19:00 | 53.17553 | 158.44415 | 122 ft | 8 kts | 248° |
| 2026-04-17 19:00 | 53.17531 | 158.44327 | 123 ft | 10 kts | 241° |
| 2026-04-17 19:00 | 53.17469 | 158.44308 | 121 ft | 11 kts | 157° |
| 2026-04-17 19:00 | 53.17389 | 158.44363 | 122 ft | 14 kts | 158° |
| 2026-04-17 19:01 | 53.17342 | 158.44353 | 120 ft | 5 kts | 222° |
| 2026-04-17 19:01 | 53.17332 | 158.44373 | 123 ft | 6 kts | 86° |
| 2026-04-17 19:01 | 53.17304 | 158.44422 | 122 ft | 7 kts | 154° |
| 2026-04-17 19:01 | 53.17256 | 158.44434 | 123 ft | 6 kts | 202° |
| 2026-04-17 19:02 | 53.17235 | 158.44377 | 122 ft | 0 kts | 248° |